sensor_id;sensor_type;location;lat;lon;timestamp;P1;durP1;ratioP1;P2;durP2;ratioP2
22675;SDS011;12521;43.310;21.876;2024-03-08T00:09:12;8.0;;;4.0;;
22675;SDS011;12521;43.310;21.876;2024-03-08T00:13:48;8.0;;;4.0;;
22675;SDS011;12521;43.310;21.876;2024-03-08T00:18:24;8.0;;;4.0;;
22675;SDS011;12521;43.310;21.876;2024-03-08T00:23:01;8.0;;;4.0;;
22675;SDS011;12521;43.310;21.876;2024-03-08T00:27:39;7.0;;;4.0;;
22675;SDS011;12521;43.310;21.876;2024-03-08T00:32:16;7.0;;;4.0;;
22675;SDS011;12521;43.310;21.876;2024-03-08T00:36:53;6.0;;;3.0;;
22675;SDS011;12521;43.310;21.876;2024-03-08T00:41:30;6.0;;;3.0;;
22675;SDS011;12521;43.310;21.876;2024-03-08T00:46:08;6.0;;;3.0;;
22675;SDS011;12521;43.310;21.876;2024-03-08T00:50:45;6.0;;;3.0;;
22675;SDS011;12521;43.310;21.876;2024-03-08T00:55:22;6.0;;;3.0;;
22675;SDS011;12521;43.310;21.876;2024-03-08T01:09:13;7.0;;;3.0;;
22675;SDS011;12521;43.310;21.876;2024-03-08T01:13:50;7.0;;;3.0;;
22675;SDS011;12521;43.310;21.876;2024-03-08T01:18:27;7.0;;;3.0;;
22675;SDS011;12521;43.310;21.876;2024-03-08T01:23:04;7.0;;;3.0;;
22675;SDS011;12521;43.310;21.876;2024-03-08T01:27:40;6.0;;;3.0;;
22675;SDS011;12521;43.310;21.876;2024-03-08T01:32:17;6.0;;;3.0;;
22675;SDS011;12521;43.310;21.876;2024-03-08T01:36:53;6.0;;;3.0;;
22675;SDS011;12521;43.310;21.876;2024-03-08T01:41:30;4.0;;;3.0;;
22675;SDS011;12521;43.310;21.876;2024-03-08T01:46:13;4.0;;;3.0;;
22675;SDS011;12521;43.310;21.876;2024-03-08T01:50:58;4.0;;;3.0;;
22675;SDS011;12521;43.310;21.876;2024-03-08T01:55:38;4.0;;;3.0;;
22675;SDS011;12521;43.310;21.876;2024-03-08T02:00:18;4.0;;;3.0;;
22675;SDS011;12521;43.310;21.876;2024-03-08T02:04:57;4.0;;;3.0;;
22675;SDS011;12521;43.310;21.876;2024-03-08T02:09:36;5.0;;;4.0;;
22675;SDS011;12521;43.310;21.876;2024-03-08T02:14:13;5.0;;;4.0;;
22675;SDS011;12521;43.310;21.876;2024-03-08T02:18:50;6.0;;;5.0;;
22675;SDS011;12521;43.310;21.876;2024-03-08T02:23:28;6.0;;;5.0;;
22675;SDS011;12521;43.310;21.876;2024-03-08T02:28:06;5.0;;;4.0;;
22675;SDS011;12521;43.310;21.876;2024-03-08T02:32:43;5.0;;;4.0;;
22675;SDS011;12521;43.310;21.876;2024-03-08T02:37:20;4.0;;;3.0;;
22675;SDS011;12521;43.310;21.876;2024-03-08T02:41:56;4.0;;;3.0;;
22675;SDS011;12521;43.310;21.876;2024-03-08T02:46:33;4.0;;;3.0;;
22675;SDS011;12521;43.310;21.876;2024-03-08T02:51:09;4.0;;;4.0;;
22675;SDS011;12521;43.310;21.876;2024-03-08T02:55:46;4.0;;;4.0;;
22675;SDS011;12521;43.310;21.876;2024-03-08T03:00:23;4.0;;;4.0;;
22675;SDS011;12521;43.310;21.876;2024-03-08T03:05:00;4.0;;;4.0;;
22675;SDS011;12521;43.310;21.876;2024-03-08T03:09:37;4.0;;;4.0;;
22675;SDS011;12521;43.310;21.876;2024-03-08T03:14:14;4.0;;;4.0;;
22675;SDS011;12521;43.310;21.876;2024-03-08T03:51:11;4.0;;;3.0;;
22675;SDS011;12521;43.310;21.876;2024-03-08T03:55:48;4.0;;;3.0;;
22675;SDS011;12521;43.310;21.876;2024-03-08T04:00:25;4.0;;;3.0;;
22675;SDS011;12521;43.310;21.876;2024-03-08T04:05:01;4.0;;;3.0;;
22675;SDS011;12521;43.310;21.876;2024-03-08T04:09:38;4.0;;;3.0;;
22675;SDS011;12521;43.310;21.876;2024-03-08T04:14:14;4.0;;;3.0;;
22675;SDS011;12521;43.310;21.876;2024-03-08T04:28:05;6.0;;;5.0;;
22675;SDS011;12521;43.310;21.876;2024-03-08T04:32:42;6.0;;;5.0;;
22675;SDS011;12521;43.310;21.876;2024-03-08T04:37:20;6.0;;;5.0;;
22675;SDS011;12521;43.310;21.876;2024-03-08T04:42:05;6.0;;;5.0;;
22675;SDS011;12521;43.310;21.876;2024-03-08T04:46:42;6.0;;;5.0;;
22675;SDS011;12521;43.310;21.876;2024-03-08T04:51:19;6.0;;;5.0;;
22675;SDS011;12521;43.310;21.876;2024-03-08T04:55:56;6.0;;;5.0;;
22675;SDS011;12521;43.310;21.876;2024-03-08T05:09:46;6.0;;;6.0;;
22675;SDS011;12521;43.310;21.876;2024-03-08T05:14:23;6.0;;;6.0;;
22675;SDS011;12521;43.310;21.876;2024-03-08T05:18:59;6.0;;;6.0;;
22675;SDS011;12521;43.310;21.876;2024-03-08T05:23:36;6.0;;;6.0;;
22675;SDS011;12521;43.310;21.876;2024-03-08T05:28:12;8.0;;;7.0;;
22675;SDS011;12521;43.310;21.876;2024-03-08T05:32:49;8.0;;;7.0;;
22675;SDS011;12521;43.310;21.876;2024-03-08T05:37:25;11.0;;;8.0;;
22675;SDS011;12521;43.310;21.876;2024-03-08T05:42:02;11.0;;;8.0;;
22675;SDS011;12521;43.310;21.876;2024-03-08T05:46:40;11.0;;;8.0;;
22675;SDS011;12521;43.310;21.876;2024-03-08T05:51:17;11.0;;;8.0;;
22675;SDS011;12521;43.310;21.876;2024-03-08T05:55:54;11.0;;;8.0;;
22675;SDS011;12521;43.310;21.876;2024-03-08T06:28:16;6.0;;;6.0;;
22675;SDS011;12521;43.310;21.876;2024-03-08T06:32:53;6.0;;;6.0;;
22675;SDS011;12521;43.310;21.876;2024-03-08T06:37:30;6.0;;;6.0;;
22675;SDS011;12521;43.310;21.876;2024-03-08T06:42:07;6.0;;;6.0;;
22675;SDS011;12521;43.310;21.876;2024-03-08T06:46:43;6.0;;;6.0;;
22675;SDS011;12521;43.310;21.876;2024-03-08T06:51:21;10.0;;;10.0;;
22675;SDS011;12521;43.310;21.876;2024-03-08T06:55:58;10.0;;;10.0;;
22675;SDS011;12521;43.310;21.876;2024-03-08T07:00:35;15.0;;;14.0;;
22675;SDS011;12521;43.310;21.876;2024-03-08T07:05:12;15.0;;;14.0;;
22675;SDS011;12521;43.310;21.876;2024-03-08T07:09:49;15.0;;;14.0;;
22675;SDS011;12521;43.310;21.876;2024-03-08T07:14:25;15.0;;;14.0;;
22675;SDS011;12521;43.310;21.876;2024-03-08T08:09:45;7.0;;;6.0;;
22675;SDS011;12521;43.310;21.876;2024-03-08T08:14:23;7.0;;;6.0;;
22675;SDS011;12521;43.310;21.876;2024-03-08T08:18:59;7.0;;;6.0;;
22675;SDS011;12521;43.310;21.876;2024-03-08T08:23:36;7.0;;;6.0;;
22675;SDS011;12521;43.310;21.876;2024-03-08T08:28:13;12.0;;;10.0;;
22675;SDS011;12521;43.310;21.876;2024-03-08T08:32:49;12.0;;;10.0;;
22675;SDS011;12521;43.310;21.876;2024-03-08T08:37:26;12.0;;;10.0;;
22675;SDS011;12521;43.310;21.876;2024-03-08T08:42:05;18.0;;;14.0;;
22675;SDS011;12521;43.310;21.876;2024-03-08T08:46:42;18.0;;;14.0;;
22675;SDS011;12521;43.310;21.876;2024-03-08T08:51:18;13.0;;;10.0;;
22675;SDS011;12521;43.310;21.876;2024-03-08T08:55:56;13.0;;;10.0;;
22675;SDS011;12521;43.310;21.876;2024-03-08T09:00:33;8.0;;;7.0;;
22675;SDS011;12521;43.310;21.876;2024-03-08T09:05:11;8.0;;;7.0;;
22675;SDS011;12521;43.310;21.876;2024-03-08T09:09:48;8.0;;;7.0;;
22675;SDS011;12521;43.310;21.876;2024-03-08T09:14:25;8.0;;;7.0;;
22675;SDS011;12521;43.310;21.876;2024-03-08T10:28:23;14.0;;;7.0;;
22675;SDS011;12521;43.310;21.876;2024-03-08T10:33:00;14.0;;;7.0;;
22675;SDS011;12521;43.310;21.876;2024-03-08T10:37:49;14.0;;;7.0;;
22675;SDS011;12521;43.310;21.876;2024-03-08T10:42:34;14.0;;;7.0;;
22675;SDS011;12521;43.310;21.876;2024-03-08T10:47:29;14.0;;;7.0;;
22675;SDS011;12521;43.310;21.876;2024-03-08T10:52:09;14.0;;;7.0;;
22675;SDS011;12521;43.310;21.876;2024-03-08T10:56:49;14.0;;;7.0;;
22675;SDS011;12521;43.310;21.876;2024-03-08T11:29:41;23.0;;;13.0;;
22675;SDS011;12521;43.310;21.876;2024-03-08T11:34:20;23.0;;;13.0;;
22675;SDS011;12521;43.310;21.876;2024-03-08T11:38:59;23.0;;;13.0;;
22675;SDS011;12521;43.310;21.876;2024-03-08T11:43:36;23.0;;;13.0;;
22675;SDS011;12521;43.310;21.876;2024-03-08T11:48:13;23.0;;;13.0;;
22675;SDS011;12521;43.310;21.876;2024-03-08T11:52:52;23.0;;;13.0;;
22675;SDS011;12521;43.310;21.876;2024-03-08T11:57:29;23.0;;;13.0;;
22675;SDS011;12521;43.310;21.876;2024-03-08T12:29:50;12.0;;;8.0;;
22675;SDS011;12521;43.310;21.876;2024-03-08T12:34:28;12.0;;;8.0;;
22675;SDS011;12521;43.310;21.876;2024-03-08T12:39:07;12.0;;;8.0;;
22675;SDS011;12521;43.310;21.876;2024-03-08T12:43:45;12.0;;;8.0;;
22675;SDS011;12521;43.310;21.876;2024-03-08T12:48:22;12.0;;;8.0;;
22675;SDS011;12521;43.310;21.876;2024-03-08T12:52:59;12.0;;;8.0;;
22675;SDS011;12521;43.310;21.876;2024-03-08T12:57:37;12.0;;;8.0;;
22675;SDS011;12521;43.310;21.876;2024-03-08T13:02:14;12.0;;;8.0;;
22675;SDS011;12521;43.310;21.876;2024-03-08T13:06:51;12.0;;;8.0;;
22675;SDS011;12521;43.310;21.876;2024-03-08T13:11:28;12.0;;;8.0;;
22675;SDS011;12521;43.310;21.876;2024-03-08T13:16:07;12.0;;;8.0;;
22675;SDS011;12521;43.310;21.876;2024-03-08T13:20:44;11.0;;;9.0;;
22675;SDS011;12521;43.310;21.876;2024-03-08T13:25:21;11.0;;;9.0;;
22675;SDS011;12521;43.310;21.876;2024-03-08T13:29:58;11.0;;;8.0;;
22675;SDS011;12521;43.310;21.876;2024-03-08T13:34:34;11.0;;;8.0;;
22675;SDS011;12521;43.310;21.876;2024-03-08T13:39:11;11.0;;;8.0;;
22675;SDS011;12521;43.310;21.876;2024-03-08T13:43:48;11.0;;;8.0;;
22675;SDS011;12521;43.310;21.876;2024-03-08T13:48:25;11.0;;;8.0;;
22675;SDS011;12521;43.310;21.876;2024-03-08T13:53:01;11.0;;;8.0;;
22675;SDS011;12521;43.310;21.876;2024-03-08T13:57:38;11.0;;;8.0;;
22675;SDS011;12521;43.310;21.876;2024-03-08T14:11:29;12.0;;;10.0;;
22675;SDS011;12521;43.310;21.876;2024-03-08T14:16:07;12.0;;;10.0;;
22675;SDS011;12521;43.310;21.876;2024-03-08T14:20:44;12.0;;;10.0;;
22675;SDS011;12521;43.310;21.876;2024-03-08T14:25:23;12.0;;;10.0;;
22675;SDS011;12521;43.310;21.876;2024-03-08T14:30:01;12.0;;;9.0;;
22675;SDS011;12521;43.310;21.876;2024-03-08T14:34:39;12.0;;;9.0;;
22675;SDS011;12521;43.310;21.876;2024-03-08T14:39:16;13.0;;;8.0;;
22675;SDS011;12521;43.310;21.876;2024-03-08T14:43:53;13.0;;;8.0;;
22675;SDS011;12521;43.310;21.876;2024-03-08T14:48:29;13.0;;;8.0;;
22675;SDS011;12521;43.310;21.876;2024-03-08T14:53:06;13.0;;;8.0;;
22675;SDS011;12521;43.310;21.876;2024-03-08T14:57:44;13.0;;;8.0;;
22675;SDS011;12521;43.310;21.876;2024-03-08T15:11:33;7.0;;;6.0;;
22675;SDS011;12521;43.310;21.876;2024-03-08T15:16:11;7.0;;;6.0;;
22675;SDS011;12521;43.310;21.876;2024-03-08T15:20:47;7.0;;;6.0;;
22675;SDS011;12521;43.310;21.876;2024-03-08T15:25:24;7.0;;;6.0;;
22675;SDS011;12521;43.310;21.876;2024-03-08T15:30:02;7.0;;;6.0;;
22675;SDS011;12521;43.310;21.876;2024-03-08T15:34:42;7.0;;;6.0;;
22675;SDS011;12521;43.310;21.876;2024-03-08T15:39:20;7.0;;;6.0;;
22675;SDS011;12521;43.310;21.876;2024-03-08T15:43:56;7.0;;;6.0;;
22675;SDS011;12521;43.310;21.876;2024-03-08T15:48:37;12.0;;;8.0;;
22675;SDS011;12521;43.310;21.876;2024-03-08T15:53:15;12.0;;;8.0;;
22675;SDS011;12521;43.310;21.876;2024-03-08T15:57:51;12.0;;;8.0;;
22675;SDS011;12521;43.310;21.876;2024-03-08T16:02:28;16.0;;;10.0;;
22675;SDS011;12521;43.310;21.876;2024-03-08T16:07:05;16.0;;;10.0;;
22675;SDS011;12521;43.310;21.876;2024-03-08T16:11:41;14.0;;;10.0;;
22675;SDS011;12521;43.310;21.876;2024-03-08T16:16:18;14.0;;;10.0;;
22675;SDS011;12521;43.310;21.876;2024-03-08T16:20:56;12.0;;;11.0;;
22675;SDS011;12521;43.310;21.876;2024-03-08T16:25:34;12.0;;;11.0;;
22675;SDS011;12521;43.310;21.876;2024-03-08T16:30:12;19.0;;;14.0;;
22675;SDS011;12521;43.310;21.876;2024-03-08T16:34:50;19.0;;;14.0;;
22675;SDS011;12521;43.310;21.876;2024-03-08T16:39:27;26.0;;;17.0;;
22675;SDS011;12521;43.310;21.876;2024-03-08T16:44:04;26.0;;;17.0;;
22675;SDS011;12521;43.310;21.876;2024-03-08T16:48:41;26.0;;;17.0;;
22675;SDS011;12521;43.310;21.876;2024-03-08T16:53:18;26.0;;;17.0;;
22675;SDS011;12521;43.310;21.876;2024-03-08T16:57:56;26.0;;;17.0;;
22675;SDS011;12521;43.310;21.876;2024-03-08T17:11:48;21.0;;;18.0;;
22675;SDS011;12521;43.310;21.876;2024-03-08T17:16:24;21.0;;;18.0;;
22675;SDS011;12521;43.310;21.876;2024-03-08T17:21:01;21.0;;;18.0;;
22675;SDS011;12521;43.310;21.876;2024-03-08T17:25:38;21.0;;;18.0;;
22675;SDS011;12521;43.310;21.876;2024-03-08T17:30:16;20.0;;;18.0;;
22675;SDS011;12521;43.310;21.876;2024-03-08T17:34:53;20.0;;;18.0;;
22675;SDS011;12521;43.310;21.876;2024-03-08T17:39:30;19.0;;;17.0;;
22675;SDS011;12521;43.310;21.876;2024-03-08T17:44:07;19.0;;;17.0;;
22675;SDS011;12521;43.310;21.876;2024-03-08T17:48:43;19.0;;;17.0;;
22675;SDS011;12521;43.310;21.876;2024-03-08T17:53:20;19.0;;;17.0;;
22675;SDS011;12521;43.310;21.876;2024-03-08T17:57:57;19.0;;;17.0;;
22675;SDS011;12521;43.310;21.876;2024-03-08T18:48:41;31.0;;;22.0;;
22675;SDS011;12521;43.310;21.876;2024-03-08T18:53:18;31.0;;;22.0;;
22675;SDS011;12521;43.310;21.876;2024-03-08T18:57:56;31.0;;;22.0;;
22675;SDS011;12521;43.310;21.876;2024-03-08T19:02:33;31.0;;;22.0;;
22675;SDS011;12521;43.310;21.876;2024-03-08T19:07:10;31.0;;;22.0;;
22675;SDS011;12521;43.310;21.876;2024-03-08T19:11:47;31.0;;;22.0;;
22675;SDS011;12521;43.310;21.876;2024-03-08T19:16:24;31.0;;;22.0;;
22675;SDS011;12521;43.310;21.876;2024-03-08T20:30:22;87.0;;;69.0;;
22675;SDS011;12521;43.310;21.876;2024-03-08T20:35:00;87.0;;;69.0;;
22675;SDS011;12521;43.310;21.876;2024-03-08T20:39:37;87.0;;;69.0;;
22675;SDS011;12521;43.310;21.876;2024-03-08T20:44:14;87.0;;;69.0;;
22675;SDS011;12521;43.310;21.876;2024-03-08T20:48:51;87.0;;;69.0;;
22675;SDS011;12521;43.310;21.876;2024-03-08T20:53:28;87.0;;;69.0;;
22675;SDS011;12521;43.310;21.876;2024-03-08T20:58:05;87.0;;;69.0;;
22675;SDS011;12521;43.310;21.876;2024-03-08T21:30:25;53.0;;;43.0;;
22675;SDS011;12521;43.310;21.876;2024-03-08T21:35:02;53.0;;;43.0;;
22675;SDS011;12521;43.310;21.876;2024-03-08T21:39:38;53.0;;;43.0;;
22675;SDS011;12521;43.310;21.876;2024-03-08T21:44:15;53.0;;;43.0;;
22675;SDS011;12521;43.310;21.876;2024-03-08T21:48:52;42.0;;;36.0;;
22675;SDS011;12521;43.310;21.876;2024-03-08T21:53:29;42.0;;;36.0;;
22675;SDS011;12521;43.310;21.876;2024-03-08T21:58:06;42.0;;;36.0;;
22675;SDS011;12521;43.310;21.876;2024-03-08T22:02:47;32.0;;;29.0;;
22675;SDS011;12521;43.310;21.876;2024-03-08T22:07:26;32.0;;;29.0;;
22675;SDS011;12521;43.310;21.876;2024-03-08T22:12:04;32.0;;;29.0;;
22675;SDS011;12521;43.310;21.876;2024-03-08T22:16:42;32.0;;;29.0;;
22675;SDS011;12521;43.310;21.876;2024-03-08T23:12:06;28.0;;;20.0;;
22675;SDS011;12521;43.310;21.876;2024-03-08T23:16:43;28.0;;;20.0;;
22675;SDS011;12521;43.310;21.876;2024-03-08T23:21:20;28.0;;;20.0;;
22675;SDS011;12521;43.310;21.876;2024-03-08T23:25:57;28.0;;;20.0;;
22675;SDS011;12521;43.310;21.876;2024-03-08T23:30:36;22.0;;;16.0;;
22675;SDS011;12521;43.310;21.876;2024-03-08T23:35:16;22.0;;;16.0;;
22675;SDS011;12521;43.310;21.876;2024-03-08T23:39:52;17.0;;;12.0;;
22675;SDS011;12521;43.310;21.876;2024-03-08T23:44:29;17.0;;;12.0;;
22675;SDS011;12521;43.310;21.876;2024-03-08T23:49:06;17.0;;;12.0;;
22675;SDS011;12521;43.310;21.876;2024-03-08T23:53:43;17.0;;;12.0;;
22675;SDS011;12521;43.310;21.876;2024-03-08T23:58:19;17.0;;;12.0;;
